createdAt,value
2022-11-05T00:02:05.315Z,9.00
2022-11-05T00:04:54.752Z,9.80
2022-11-05T00:07:54.669Z,9.30
2022-11-05T00:10:30.935Z,9.60
2022-11-05T00:13:18.670Z,8.50
2022-11-05T00:16:05.688Z,10.60
2022-11-05T00:18:36.319Z,8.30
2022-11-05T00:21:05.528Z,8.20
2022-11-05T00:23:52.646Z,9.20
2022-11-05T00:26:20.911Z,9.00
2022-11-05T00:28:51.073Z,8.80
2022-11-05T00:31:19.410Z,8.70
2022-11-05T00:33:47.689Z,9.20
2022-11-05T00:36:18.428Z,9.40
2022-11-05T00:38:46.807Z,10.20
2022-11-05T00:41:17.637Z,8.70
2022-11-05T00:44:04.349Z,8.10
2022-11-05T00:46:32.728Z,8.30
2022-11-05T00:49:20.868Z,9.20
2022-11-05T00:52:11.369Z,7.90
2022-11-05T00:54:39.650Z,7.80
2022-11-05T00:57:07.930Z,8.20
2022-11-05T00:59:36.200Z,7.90
2022-11-05T01:02:04.717Z,7.30
2022-11-05T01:04:33.272Z,7.20
2022-11-05T01:07:01.541Z,8.40
2022-11-05T01:09:29.821Z,7.80
2022-11-05T01:12:00.659Z,7.80
2022-11-05T01:14:30.060Z,7.40
2022-11-05T01:17:00.180Z,7.40
2022-11-05T01:19:29.437Z,9.20
2022-11-05T01:21:57.641Z,7.60
2022-11-05T01:24:25.867Z,9.20
2022-11-05T01:26:54.107Z,8.50
2022-11-05T01:29:22.798Z,7.40
2022-11-05T01:31:51.080Z,7.90
2022-11-05T01:34:19.311Z,6.30
2022-11-05T01:36:47.728Z,7.90
2022-11-05T01:39:16.109Z,6.90
2022-11-05T01:41:44.395Z,7.20
2022-11-05T01:44:54.755Z,7.20
2022-11-05T01:47:29.994Z,7.00
2022-11-05T01:50:04.605Z,8.70
2022-11-05T01:52:35.943Z,7.60
2022-11-05T01:55:05.882Z,7.30
2022-11-05T01:57:34.201Z,6.90
2022-11-05T02:00:02.742Z,6.00
2022-11-05T02:02:41.807Z,6.70
2022-11-05T02:05:14.028Z,7.00
2022-11-05T02:07:46.903Z,6.90
2022-11-05T02:10:18.140Z,8.10
2022-11-05T02:12:48.556Z,8.20
2022-11-05T02:15:33.057Z,6.90
2022-11-05T02:21:10.884Z,6.70
2022-11-05T02:24:25.443Z,6.90
2022-11-05T02:27:34.885Z,6.10
2022-11-05T02:30:38.388Z,6.30
2022-11-05T02:33:31.238Z,7.00
2022-11-05T02:35:59.519Z,5.70
2022-11-05T02:38:42.373Z,6.70
2022-11-05T02:41:25.366Z,6.70
2022-11-05T02:44:11.457Z,6.70
2022-11-05T02:47:03.264Z,6.00
2022-11-05T02:50:01.873Z,5.00
2022-11-05T02:52:57.999Z,6.70
2022-11-05T02:55:45.630Z,6.80
2022-11-05T02:58:14.012Z,5.20
2022-11-05T03:00:56.325Z,6.90
2022-11-05T03:03:39.650Z,5.20
2022-11-05T03:06:47.562Z,5.30
2022-11-05T03:09:32.520Z,5.70
2022-11-05T03:12:07.046Z,5.60
2022-11-05T03:15:02.158Z,6.60
2022-11-05T03:18:04.531Z,5.50
2022-11-05T03:21:05.788Z,5.80
2022-11-05T03:23:51.156Z,5.70
2022-11-05T03:26:29.572Z,6.90
2022-11-05T03:29:09.938Z,4.20
2022-11-05T03:31:40.582Z,4.70
2022-11-05T03:34:10.795Z,5.00
2022-11-05T03:36:47.262Z,5.30
2022-11-05T03:39:29.667Z,6.10
2022-11-05T03:44:35.342Z,5.20
2022-11-05T03:47:11.570Z,6.50
2022-11-05T03:50:16.950Z,5.60
2022-11-05T03:53:01.791Z,5.50
2022-11-05T03:55:48.017Z,5.00
2022-11-05T03:58:18.734Z,5.30
2022-11-05T04:00:49.702Z,5.80
2022-11-05T04:03:18.061Z,5.80
2022-11-05T04:06:06.904Z,5.20
2022-11-05T04:08:53.734Z,5.30
2022-11-05T04:11:41.366Z,4.90
2022-11-05T04:14:11.994Z,5.60
2022-11-05T04:17:01.166Z,5.20
2022-11-05T04:19:50.123Z,6.00
2022-11-05T04:22:37.557Z,6.30
2022-11-05T04:25:08.885Z,4.90
2022-11-05T04:27:37.695Z,5.10
2022-11-05T04:30:19.570Z,4.80
2022-11-05T04:33:14.271Z,6.10
2022-11-05T04:35:46.226Z,5.20
2022-11-05T04:38:20.247Z,6.20
2022-11-05T04:40:48.640Z,5.80
2022-11-05T04:43:19.782Z,5.80
2022-11-05T04:45:48.261Z,5.10
2022-11-05T04:48:16.558Z,5.20
2022-11-05T04:50:47.171Z,4.90
2022-11-05T04:53:15.462Z,5.90
2022-11-05T04:55:43.731Z,6.70
2022-11-05T04:58:12.002Z,5.90
2022-11-05T05:00:40.350Z,4.80
2022-11-05T05:03:09.227Z,5.70
2022-11-05T05:05:37.760Z,5.00
2022-11-05T05:08:06.693Z,5.50
2022-11-05T05:10:35.542Z,6.20
2022-11-05T05:13:03.819Z,6.00
2022-11-05T05:15:34.960Z,5.50
2022-11-05T05:18:03.965Z,5.00
2022-11-05T05:20:50.461Z,4.80
2022-11-05T05:23:19.042Z,5.20
2022-11-05T05:25:47.321Z,5.00
2022-11-05T05:28:16.061Z,5.70
2022-11-05T05:30:44.551Z,5.10
2022-11-05T05:33:13.054Z,4.20
2022-11-05T05:35:41.573Z,5.50
2022-11-05T05:38:11.982Z,6.10
2022-11-05T05:40:42.601Z,5.80
2022-11-05T05:43:11.088Z,5.00
2022-11-05T05:45:39.584Z,5.20
2022-11-05T05:48:07.893Z,4.20
2022-11-05T05:50:36.445Z,5.00
2022-11-05T05:55:37.728Z,5.30
2022-11-05T05:58:06.088Z,4.70
2022-11-05T06:00:34.776Z,5.80
2022-11-05T06:03:03.225Z,4.80
2022-11-05T06:05:31.940Z,5.20
2022-11-05T06:08:00.422Z,4.90
2022-11-05T06:10:28.747Z,4.20
2022-11-05T06:13:00.500Z,5.00
2022-11-05T06:15:33.176Z,4.80
2022-11-05T06:18:06.385Z,4.60
2022-11-05T06:20:35.014Z,5.20
2022-11-05T06:23:03.804Z,5.40
2022-11-05T06:25:34.964Z,6.50
2022-11-05T06:28:06.762Z,6.70
2022-11-05T06:30:34.992Z,5.50
2022-11-05T06:33:06.971Z,6.60
2022-11-05T06:35:36.361Z,5.80
2022-11-05T06:38:04.729Z,6.20
2022-11-05T06:40:33.518Z,4.90
2022-11-05T06:43:01.798Z,6.30
2022-11-05T06:45:30.079Z,5.70
2022-11-05T06:48:01.018Z,5.20
2022-11-05T06:50:30.005Z,5.20
2022-11-05T06:53:01.457Z,5.00
2022-11-05T06:55:31.295Z,7.60
2022-11-05T06:57:59.554Z,4.90
2022-11-05T07:00:28.433Z,6.40
2022-11-05T07:03:07.806Z,5.40
2022-11-05T07:05:40.259Z,7.40
2022-11-05T07:08:08.528Z,7.50
2022-11-05T07:10:37.184Z,7.10
2022-11-05T07:13:08.368Z,6.90
2022-11-05T07:15:37.806Z,7.70
2022-11-05T07:18:09.805Z,5.80
2022-11-05T07:20:38.106Z,7.10
2022-11-05T07:23:13.732Z,4.40
2022-11-05T07:25:43.574Z,5.00
2022-11-05T07:28:12.042Z,5.90
2022-11-05T07:30:40.384Z,5.10
2022-11-05T07:33:09.503Z,5.10
2022-11-05T07:35:38.342Z,5.20
2022-11-05T07:38:06.602Z,4.90
2022-11-05T07:40:37.236Z,5.80
2022-11-05T07:43:05.501Z,5.30
2022-11-05T07:45:33.990Z,7.00
2022-11-05T07:48:05.061Z,6.20
2022-11-05T07:50:36.652Z,6.00
2022-11-05T07:53:14.422Z,8.00
2022-11-05T07:55:46.101Z,6.60
2022-11-05T07:58:14.726Z,7.00
2022-11-05T08:00:43.274Z,7.60
2022-11-05T08:03:19.559Z,6.30
2022-11-05T08:05:49.079Z,9.10
2022-11-05T08:08:19.862Z,6.60
2022-11-05T08:10:48.198Z,8.40
2022-11-05T08:13:17.398Z,10.80
2022-11-05T08:15:45.678Z,8.80
2022-11-05T08:18:17.829Z,9.40
2022-11-05T08:20:47.241Z,9.90
2022-11-05T08:23:15.947Z,9.10
2022-11-05T08:25:44.567Z,8.50
2022-11-05T08:28:13.868Z,9.20
2022-11-05T08:30:42.684Z,7.80
2022-11-05T08:36:03.574Z,11.80
2022-11-05T08:38:31.915Z,11.10
2022-11-05T08:41:01.097Z,8.70
2022-11-05T08:43:29.336Z,7.80
2022-11-05T08:46:00.337Z,9.10
2022-11-05T08:48:28.803Z,9.40
2022-11-05T08:51:00.802Z,6.40
2022-11-05T08:53:29.152Z,8.80
2022-11-05T08:56:00.804Z,8.30
2022-11-05T08:58:29.082Z,8.40
2022-11-05T09:01:03.432Z,10.40
2022-11-05T09:03:33.430Z,9.60
2022-11-05T09:06:01.750Z,9.50
2022-11-05T09:08:30.011Z,11.10
2022-11-05T09:10:58.520Z,8.70
2022-11-05T09:13:27.905Z,8.90
2022-11-05T09:15:59.027Z,8.40
2022-11-05T09:18:27.489Z,8.70
2022-11-05T09:20:55.766Z,10.10
2022-11-05T09:23:23.986Z,8.80
2022-11-05T09:25:52.219Z,8.10
2022-11-05T09:28:22.856Z,9.20
2022-11-05T09:30:52.936Z,7.40
2022-11-05T09:33:24.624Z,8.60
2022-11-05T09:35:53.798Z,8.10
2022-11-05T09:38:22.318Z,10.20
2022-11-05T09:41:13.213Z,9.80
2022-11-05T09:43:59.304Z,7.70
2022-11-05T09:46:43.966Z,8.80
2022-11-05T09:49:31.788Z,10.60
2022-11-05T09:52:01.407Z,9.10
2022-11-05T09:54:31.918Z,7.50
2022-11-05T09:57:03.478Z,7.00
2022-11-05T10:00:01.563Z,8.40
2022-11-05T10:02:48.995Z,8.80
2022-11-05T10:05:18.981Z,9.40
2022-11-05T10:08:14.999Z,6.50
2022-11-05T10:10:53.354Z,7.00
2022-11-05T10:13:30.340Z,8.20
2022-11-05T10:16:15.672Z,10.50
2022-11-05T10:18:51.390Z,9.00
2022-11-05T10:21:37.635Z,8.70
2022-11-05T10:24:21.154Z,7.60
2022-11-05T10:26:53.762Z,7.50
2022-11-05T10:29:34.568Z,7.60
2022-11-05T10:32:07.384Z,9.10
2022-11-05T10:34:39.603Z,7.60
2022-11-05T10:37:10.311Z,7.50
2022-11-05T10:39:38.842Z,6.70
2022-11-05T10:42:31.284Z,9.50
2022-11-05T10:45:34.166Z,6.80
2022-11-05T10:48:28.743Z,8.70
2022-11-05T10:50:58.042Z,9.90
2022-11-05T10:53:34.612Z,6.00
2022-11-05T10:58:59.941Z,8.40
2022-11-05T11:01:29.764Z,7.10
2022-11-05T11:04:24.553Z,6.60
2022-11-05T11:06:58.665Z,8.30
2022-11-05T11:09:35.873Z,7.30
2022-11-05T11:12:42.645Z,8.70
2022-11-05T11:15:24.571Z,8.10
2022-11-05T11:17:53.534Z,11.00
2022-11-05T11:20:33.889Z,9.90
2022-11-05T11:23:13.434Z,8.30
2022-11-05T11:25:53.222Z,8.30
2022-11-05T11:28:52.383Z,6.70
2022-11-05T11:31:27.716Z,9.60
2022-11-05T11:34:04.504Z,10.10
2022-11-05T11:36:47.090Z,7.40
2022-11-05T11:41:57.798Z,10.00
2022-11-05T11:44:32.829Z,10.80
2022-11-05T11:47:17.564Z,9.20
2022-11-05T11:49:55.709Z,12.00
2022-11-05T11:52:36.681Z,10.10
2022-11-05T11:55:22.964Z,10.30
2022-11-05T11:58:06.769Z,11.00
2022-11-05T12:00:45.643Z,11.00
2022-11-05T12:03:49.684Z,9.20
2022-11-05T12:06:34.427Z,8.60
2022-11-05T12:09:11.612Z,11.80
2022-11-05T12:12:11.937Z,11.00
2022-11-05T12:15:06.635Z,9.70
2022-11-05T12:17:56.017Z,10.30
2022-11-05T12:21:06.580Z,7.90
2022-11-05T12:23:53.179Z,9.90
2022-11-05T12:26:37.949Z,11.20
2022-11-05T12:29:35.970Z,8.20
2022-11-05T12:32:34.150Z,10.10
2022-11-05T12:35:12.816Z,11.00
2022-11-05T12:37:59.219Z,13.60
2022-11-05T12:41:24.126Z,11.90
2022-11-05T12:44:37.251Z,8.30
2022-11-05T12:47:24.992Z,10.10
2022-11-05T12:50:17.345Z,9.40
2022-11-05T12:53:36.498Z,9.90
2022-11-05T12:56:16.862Z,10.10
2022-11-05T13:01:35.550Z,9.60
2022-11-05T13:04:18.360Z,9.00
2022-11-05T13:06:53.101Z,9.90
2022-11-05T13:12:45.429Z,11.10
2022-11-05T13:15:29.900Z,8.50
2022-11-05T13:18:14.466Z,7.40
2022-11-05T13:20:50.211Z,11.10
2022-11-05T13:23:30.474Z,10.60
2022-11-05T13:26:19.475Z,9.00
2022-11-05T13:29:03.864Z,9.80
2022-11-05T13:31:38.923Z,9.50
2022-11-05T13:34:12.109Z,8.10
2022-11-05T13:37:10.497Z,12.40
2022-11-05T13:39:50.973Z,10.60
2022-11-05T13:43:01.941Z,8.70
2022-11-05T13:46:05.683Z,10.80
2022-11-05T13:48:57.472Z,9.30
2022-11-05T13:52:09.482Z,11.10
2022-11-05T13:55:09.531Z,10.10
2022-11-05T13:57:59.390Z,11.40
2022-11-05T14:00:36.603Z,8.20
2022-11-05T14:03:18.567Z,7.20
2022-11-05T14:05:58.931Z,10.90
2022-11-05T14:08:29.411Z,9.50
2022-11-05T14:11:13.713Z,8.20
2022-11-05T14:13:46.032Z,12.60
2022-11-05T14:16:21.250Z,13.40
2022-11-05T14:19:19.808Z,13.30
2022-11-05T14:21:53.802Z,16.00
2022-11-05T14:24:22.102Z,12.60
2022-11-05T14:27:02.671Z,15.30
2022-11-05T14:29:48.660Z,14.10
2022-11-05T14:32:22.516Z,17.70
2022-11-05T14:35:01.211Z,13.90
2022-11-05T14:37:33.182Z,11.10
2022-11-05T14:40:33.889Z,17.10
2022-11-05T14:43:27.255Z,16.10
2022-11-05T14:46:08.328Z,25.20
2022-11-05T14:49:09.709Z,25.20
2022-11-05T14:51:48.202Z,26.20
2022-11-05T14:54:49.453Z,37.70
2022-11-05T14:57:42.711Z,38.20
2022-11-05T15:00:29.426Z,46.60
2022-11-05T15:03:24.560Z,52.50
2022-11-05T15:06:03.354Z,48.40
2022-11-05T15:08:52.106Z,60.40
2022-11-05T15:14:38.745Z,71.90
2022-11-05T15:17:58.419Z,101.20
2022-11-05T15:20:44.410Z,89.20
2022-11-05T15:23:26.513Z,77.90
2022-11-05T15:26:31.864Z,93.00
2022-11-05T15:29:01.527Z,93.90
2022-11-05T15:31:36.308Z,92.00
2022-11-05T15:34:21.984Z,94.80
2022-11-05T15:36:58.162Z,92.30
2022-11-05T15:39:46.703Z,96.60
2022-11-05T15:42:23.720Z,81.90
2022-11-05T15:44:57.693Z,91.50
2022-11-05T15:47:32.031Z,90.30
2022-11-05T15:50:07.495Z,100.80
2022-11-05T15:52:45.784Z,92.20
2022-11-05T15:55:14.146Z,100.30
2022-11-05T15:58:07.046Z,95.00
2022-11-05T16:03:29.561Z,102.30
2022-11-05T16:05:59.691Z,106.00
2022-11-05T16:11:26.479Z,98.50
2022-11-05T16:17:18.559Z,101.20
2022-11-05T16:19:48.190Z,95.20
2022-11-05T16:22:17.520Z,93.50
2022-11-05T16:24:46.612Z,103.40
2022-11-05T16:27:19.974Z,97.20
2022-11-05T16:29:50.025Z,107.20
2022-11-05T16:32:31.379Z,88.70
2022-11-05T16:35:04.065Z,96.20
2022-11-05T16:37:46.413Z,88.70
2022-11-05T16:40:24.530Z,87.00
2022-11-05T16:45:55.573Z,75.10
2022-11-05T16:48:24.742Z,87.00
2022-11-05T16:50:53.562Z,70.10
2022-11-05T16:53:21.950Z,83.30
2022-11-05T16:55:50.722Z,69.00
2022-11-05T16:58:26.084Z,77.70
2022-11-05T17:01:08.284Z,71.30
2022-11-05T17:03:36.752Z,68.10
2022-11-05T17:06:05.613Z,73.90
2022-11-05T17:08:34.841Z,71.10
2022-11-05T17:11:03.342Z,67.30
2022-11-05T17:13:31.911Z,69.30
2022-11-05T17:16:00.240Z,55.90
2022-11-05T17:18:28.720Z,59.60
2022-11-05T17:20:57.294Z,57.30
2022-11-05T17:23:29.931Z,57.20
2022-11-05T17:26:05.446Z,58.10
2022-11-05T17:28:34.777Z,54.80
2022-11-05T17:31:06.334Z,55.80
2022-11-05T17:33:34.618Z,54.20
2022-11-05T17:36:08.722Z,50.00
2022-11-05T17:38:37.692Z,49.60
2022-11-05T17:41:19.307Z,49.40
2022-11-05T17:43:48.909Z,49.30
2022-11-05T17:46:17.475Z,45.50
2022-11-05T17:48:46.297Z,43.70
2022-11-05T17:51:18.674Z,47.20
2022-11-05T17:53:49.132Z,50.40
2022-11-05T17:56:30.527Z,43.60
2022-11-05T18:01:49.104Z,44.10
2022-11-05T18:04:17.736Z,43.60
2022-11-05T18:06:48.976Z,42.30
2022-11-05T18:09:17.307Z,43.70
2022-11-05T18:11:46.130Z,42.70
2022-11-05T18:14:15.976Z,40.80
2022-11-05T18:16:46.155Z,37.30
2022-11-05T18:19:14.464Z,42.00
2022-11-05T18:21:45.100Z,34.80
2022-11-05T18:24:13.373Z,36.00
2022-11-05T18:26:42.572Z,35.60
2022-11-05T18:29:11.056Z,35.70
2022-11-05T18:31:39.634Z,33.50
2022-11-05T18:34:10.577Z,31.50
2022-11-05T18:36:39.262Z,31.50
2022-11-05T18:39:08.903Z,31.00
2022-11-05T18:41:37.153Z,32.70
2022-11-05T18:44:06.241Z,29.90
2022-11-05T18:49:23.186Z,29.80
2022-11-05T18:51:51.655Z,25.80
2022-11-05T18:54:21.272Z,27.40
2022-11-05T18:56:49.641Z,32.50
2022-11-05T18:59:36.772Z,27.80
2022-11-05T19:02:08.612Z,30.00
2022-11-05T19:04:37.123Z,29.50
2022-11-05T19:07:07.532Z,28.00
2022-11-05T19:09:37.754Z,26.50
2022-11-05T19:12:07.739Z,22.90
